sensor_id;sensor_type;location;lat;lon;timestamp;pressure;altitude;pressure_sealevel;temperature;humidity
58467;BME280;44255;49.244;7.726;2022-10-19T03:33:07;99211.75;;;12.86;100.00
58467;BME280;44255;49.244;7.726;2022-10-19T03:35:32;99217.34;;;12.78;100.00
58467;BME280;44255;49.244;7.726;2022-10-19T03:37:57;99211.91;;;12.82;100.00
58467;BME280;44255;49.244;7.726;2022-10-19T03:40:22;99214.59;;;12.80;100.00
58467;BME280;44255;49.244;7.726;2022-10-19T03:42:48;99214.72;;;12.77;100.00
58467;BME280;44255;49.244;7.726;2022-10-19T03:45:13;99218.59;;;12.66;100.00
58467;BME280;44255;49.244;7.726;2022-10-19T03:47:38;99218.59;;;12.66;100.00
58467;BME280;44255;49.244;7.726;2022-10-19T03:50:04;99212.19;;;12.72;100.00
58467;BME280;44255;49.244;7.726;2022-10-19T03:52:30;99219.47;;;12.67;100.00
58467;BME280;44255;49.244;7.726;2022-10-19T03:54:55;99217.97;;;12.58;100.00
58467;BME280;44255;49.244;7.726;2022-10-19T03:57:20;99218.59;;;12.66;100.00
58467;BME280;44255;49.244;7.726;2022-10-19T03:59:45;99217.69;;;12.68;100.00
58467;BME280;44255;49.244;7.726;2022-10-19T04:02:11;99231.13;;;12.64;100.00
58467;BME280;44255;49.244;7.726;2022-10-19T04:04:36;99220.38;;;12.68;100.00
58467;BME280;44255;49.244;7.726;2022-10-19T04:07:01;99225.78;;;12.64;100.00
58467;BME280;44255;49.244;7.726;2022-10-19T04:09:26;99222.69;;;12.50;100.00
58467;BME280;44255;49.244;7.726;2022-10-19T04:11:52;99217.47;;;12.45;100.00
58467;BME280;44255;49.244;7.726;2022-10-19T04:14:21;99222.69;;;12.50;100.00
58467;BME280;44255;49.244;7.726;2022-10-19T04:16:47;99211.47;;;12.67;100.00
58467;BME280;44255;49.244;7.726;2022-10-19T04:19:13;99216.91;;;12.64;100.00
58467;BME280;44255;49.244;7.726;2022-10-19T04:21:39;99220.28;;;12.69;100.00
58467;BME280;44255;49.244;7.726;2022-10-19T04:26:37;99218.41;;;12.73;100.00
58467;BME280;44255;49.244;7.726;2022-10-19T04:29:03;99215.88;;;12.68;100.00
58467;BME280;44255;49.244;7.726;2022-10-19T04:31:28;99212.16;;;12.74;100.00
58467;BME280;44255;49.244;7.726;2022-10-19T04:33:54;99219.03;;;12.81;100.00
58467;BME280;44255;49.244;7.726;2022-10-19T04:36:20;99213.53;;;12.86;100.00
58467;BME280;44255;49.244;7.726;2022-10-19T04:38:45;99209.69;;;12.68;100.00
58467;BME280;44255;49.244;7.726;2022-10-19T04:41:13;99206.91;;;12.71;100.00
58467;BME280;44255;49.244;7.726;2022-10-19T04:43:39;99206.03;;;12.70;100.00
58467;BME280;44255;49.244;7.726;2022-10-19T04:46:07;99213.06;;;12.73;100.00
58467;BME280;44255;49.244;7.726;2022-10-19T04:48:34;99207.72;;;12.73;100.00
58467;BME280;44255;49.244;7.726;2022-10-19T04:50:59;99211.84;;;12.83;100.00
58467;BME280;44255;49.244;7.726;2022-10-19T04:53:25;99210.06;;;12.84;100.00
58467;BME280;44255;49.244;7.726;2022-10-19T04:55:50;99212.97;;;12.76;100.00
58467;BME280;44255;49.244;7.726;2022-10-19T04:58:16;99209.09;;;12.86;100.00
58467;BME280;44255;49.244;7.726;2022-10-19T05:00:41;99219.78;;;12.86;100.00
58467;BME280;44255;49.244;7.726;2022-10-19T05:03:06;99208.00;;;12.92;100.00
58467;BME280;44255;49.244;7.726;2022-10-19T05:05:32;99216.19;;;12.87;100.00
58467;BME280;44255;49.244;7.726;2022-10-19T05:07:58;99210.94;;;12.84;100.00
58467;BME280;44255;49.244;7.726;2022-10-19T05:10:24;99214.50;;;12.83;100.00
58467;BME280;44255;49.244;7.726;2022-10-19T05:12:49;99211.84;;;12.83;100.00
58467;BME280;44255;49.244;7.726;2022-10-19T05:15:14;99209.91;;;12.88;100.00
58467;BME280;44255;49.244;7.726;2022-10-19T05:17:39;99207.25;;;12.88;100.00
58467;BME280;44255;49.244;7.726;2022-10-19T05:20:05;99202.97;;;12.83;100.00
58467;BME280;44255;49.244;7.726;2022-10-19T05:22:30;99206.16;;;12.94;100.00
58467;BME280;44255;49.244;7.726;2022-10-19T05:24:56;99206.09;;;12.95;100.00
58467;BME280;44255;49.244;7.726;2022-10-19T05:27:21;99208.66;;;12.99;100.00
58467;BME280;44255;49.244;7.726;2022-10-19T05:29:46;99203.50;;;12.94;100.00
58467;BME280;44255;49.244;7.726;2022-10-19T05:32:12;99196.78;;;13.07;100.00
58467;BME280;44255;49.244;7.726;2022-10-19T05:34:37;99196.22;;;12.98;100.00
58467;BME280;44255;49.244;7.726;2022-10-19T05:37:02;99197.78;;;13.05;100.00
58467;BME280;44255;49.244;7.726;2022-10-19T05:39:27;99190.44;;;13.12;100.00
58467;BME280;44255;49.244;7.726;2022-10-19T05:41:53;99192.34;;;13.08;100.00
58467;BME280;44255;49.244;7.726;2022-10-19T05:44:20;99185.44;;;13.01;100.00
58467;BME280;44255;49.244;7.726;2022-10-19T05:46:47;99187.41;;;12.95;100.00
58467;BME280;44255;49.244;7.726;2022-10-19T05:49:14;99186.78;;;12.87;100.00
58467;BME280;44255;49.244;7.726;2022-10-19T05:51:40;99188.56;;;12.87;100.00
58467;BME280;44255;49.244;7.726;2022-10-19T05:54:05;99185.19;;;12.82;100.00
58467;BME280;44255;49.244;7.726;2022-10-19T05:56:32;99184.22;;;12.84;100.00
58467;BME280;44255;49.244;7.726;2022-10-19T05:58:59;99187.16;;;12.76;100.00
58467;BME280;44255;49.244;7.726;2022-10-19T06:01:26;99178.28;;;12.74;100.00
58467;BME280;44255;49.244;7.726;2022-10-19T06:03:52;99181.03;;;12.73;100.00
58467;BME280;44255;49.244;7.726;2022-10-19T06:06:18;99181.13;;;12.70;100.00
58467;BME280;44255;49.244;7.726;2022-10-19T06:08:43;99188.16;;;12.72;100.00
58467;BME280;44255;49.244;7.726;2022-10-19T06:11:18;99191.34;;;12.84;100.00
58467;BME280;44255;49.244;7.726;2022-10-19T06:13:45;99185.13;;;12.83;100.00
58467;BME280;44255;49.244;7.726;2022-10-19T06:16:13;99188.41;;;12.93;100.00
58467;BME280;44255;49.244;7.726;2022-10-19T06:18:39;99190.78;;;13.01;100.00
58467;BME280;44255;49.244;7.726;2022-10-19T06:21:06;99192.72;;;12.97;100.00
58467;BME280;44255;49.244;7.726;2022-10-19T06:23:33;99191.66;;;13.01;100.00
58467;BME280;44255;49.244;7.726;2022-10-19T06:26:00;99194.50;;;12.97;100.00
58467;BME280;44255;49.244;7.726;2022-10-19T06:28:26;99192.56;;;13.02;100.00
58467;BME280;44255;49.244;7.726;2022-10-19T06:30:51;99189.19;;;13.22;100.00
58467;BME280;44255;49.244;7.726;2022-10-19T06:33:16;99190.56;;;13.34;100.00
58467;BME280;44255;49.244;7.726;2022-10-19T06:35:42;99202.50;;;13.50;100.00
58467;BME280;44255;49.244;7.726;2022-10-19T06:38:08;99192.19;;;13.65;100.00
58467;BME280;44255;49.244;7.726;2022-10-19T06:40:34;99194.38;;;13.79;100.00
58467;BME280;44255;49.244;7.726;2022-10-19T06:42:59;99189.44;;;13.92;100.00
58467;BME280;44255;49.244;7.726;2022-10-19T06:45:24;99191.06;;;13.96;100.00
58467;BME280;44255;49.244;7.726;2022-10-19T06:47:50;99180.06;;;14.04;100.00
58467;BME280;44255;49.244;7.726;2022-10-19T06:50:15;99186.75;;;14.16;100.00
58467;BME280;44255;49.244;7.726;2022-10-19T06:52:40;99183.59;;;14.28;99.55
58467;BME280;44255;49.244;7.726;2022-10-19T06:55:06;99184.41;;;14.30;99.72
58467;BME280;44255;49.244;7.726;2022-10-19T06:57:32;99183.19;;;14.39;98.86
58467;BME280;44255;49.244;7.726;2022-10-19T06:59:57;99181.59;;;14.57;98.51
58467;BME280;44255;49.244;7.726;2022-10-19T07:02:22;99183.25;;;14.60;97.84
58467;BME280;44255;49.244;7.726;2022-10-19T07:04:48;99182.81;;;14.71;97.97
58467;BME280;44255;49.244;7.726;2022-10-19T07:07:13;99174.44;;;14.80;97.85
58467;BME280;44255;49.244;7.726;2022-10-19T07:09:38;99178.38;;;14.93;95.42
58467;BME280;44255;49.244;7.726;2022-10-19T07:12:03;99174.25;;;15.07;95.37
58467;BME280;44255;49.244;7.726;2022-10-19T07:14:29;99171.88;;;14.99;95.67
58467;BME280;44255;49.244;7.726;2022-10-19T07:16:55;99176.47;;;15.18;96.77
58467;BME280;44255;49.244;7.726;2022-10-19T07:19:21;99178.59;;;15.30;97.46
58467;BME280;44255;49.244;7.726;2022-10-19T07:21:50;99178.97;;;15.43;95.62
58467;BME280;44255;49.244;7.726;2022-10-19T07:24:15;99178.06;;;15.22;96.95
58467;BME280;44255;49.244;7.726;2022-10-19T07:26:40;99179.25;;;15.15;97.40
58467;BME280;44255;49.244;7.726;2022-10-19T07:29:06;99182.72;;;14.96;97.13
58467;BME280;44255;49.244;7.726;2022-10-19T07:31:31;99182.84;;;14.93;98.64
58467;BME280;44255;49.244;7.726;2022-10-19T07:33:59;99172.75;;;15.00;98.39
58467;BME280;44255;49.244;7.726;2022-10-19T07:36:26;99181.78;;;14.97;98.18
58467;BME280;44255;49.244;7.726;2022-10-19T07:38:52;99177.31;;;14.98;98.42
58467;BME280;44255;49.244;7.726;2022-10-19T07:41:19;99177.13;;;15.02;98.80
58467;BME280;44255;49.244;7.726;2022-10-19T07:43:46;99183.34;;;15.03;99.09
58467;BME280;44255;49.244;7.726;2022-10-19T07:46:16;99182.66;;;14.98;99.95
58467;BME280;44255;49.244;7.726;2022-10-19T07:48:43;99189.44;;;15.06;99.41
58467;BME280;44255;49.244;7.726;2022-10-19T07:51:10;99192.09;;;14.62;100.00
58467;BME280;44255;49.244;7.726;2022-10-19T07:53:36;99186.97;;;14.79;100.00
58467;BME280;44255;49.244;7.726;2022-10-19T07:56:07;99185.72;;;14.88;100.00
58467;BME280;44255;49.244;7.726;2022-10-19T07:58:33;99187.91;;;14.78;100.00
58467;BME280;44255;49.244;7.726;2022-10-19T08:01:00;99182.81;;;14.72;100.00
58467;BME280;44255;49.244;7.726;2022-10-19T08:03:26;99185.13;;;14.58;100.00
58467;BME280;44255;49.244;7.726;2022-10-19T08:05:51;99180.03;;;14.51;100.00
58467;BME280;44255;49.244;7.726;2022-10-19T08:08:16;99191.91;;;14.44;100.00
58467;BME280;44255;49.244;7.726;2022-10-19T08:10:41;99191.91;;;14.44;100.00
58467;BME280;44255;49.244;7.726;2022-10-19T08:13:07;99183.34;;;14.58;100.00
58467;BME280;44255;49.244;7.726;2022-10-19T08:15:32;99185.72;;;14.66;100.00
58467;BME280;44255;49.244;7.726;2022-10-19T08:17:58;99191.19;;;14.85;100.00
58467;BME280;44255;49.244;7.726;2022-10-19T08:20:23;99191.78;;;14.93;100.00
58467;BME280;44255;49.244;7.726;2022-10-19T08:22:49;99194.94;;;15.03;100.00
58467;BME280;44255;49.244;7.726;2022-10-19T08:25:14;99188.63;;;15.04;100.00
58467;BME280;44255;49.244;7.726;2022-10-19T08:27:39;99193.28;;;15.21;100.00
58467;BME280;44255;49.244;7.726;2022-10-19T08:30:05;99184.38;;;15.42;100.00
58467;BME280;44255;49.244;7.726;2022-10-19T08:32:30;99179.34;;;15.55;100.00
58467;BME280;44255;49.244;7.726;2022-10-19T08:34:56;99182.69;;;15.81;100.00
58467;BME280;44255;49.244;7.726;2022-10-19T08:37:21;99179.34;;;15.96;100.00
58467;BME280;44255;49.244;7.726;2022-10-19T08:39:46;99176.75;;;16.14;100.00
58467;BME280;44255;49.244;7.726;2022-10-19T08:43:32;99166.19;;;16.47;100.00
58467;BME280;44255;49.244;7.726;2022-10-19T08:45:41;99180.28;;;16.89;100.00
58467;BME280;44255;49.244;7.726;2022-10-19T08:48:22;99170.38;;;17.09;99.22
58467;BME280;44255;49.244;7.726;2022-10-19T08:50:49;99175.31;;;17.18;97.99
58467;BME280;44255;49.244;7.726;2022-10-19T09:01:38;99158.25;;;17.71;94.16
58467;BME280;44255;49.244;7.726;2022-10-19T09:04:27;99156.31;;;17.90;94.02
58467;BME280;44255;49.244;7.726;2022-10-19T09:07:23;99168.53;;;17.96;92.17
58467;BME280;44255;49.244;7.726;2022-10-19T09:09:53;99164.28;;;17.92;90.88
58467;BME280;44255;49.244;7.726;2022-10-19T09:12:30;99174.63;;;17.84;90.68
58467;BME280;44255;49.244;7.726;2022-10-19T09:15:03;99157.72;;;17.98;89.92
58467;BME280;44255;49.244;7.726;2022-10-19T09:17:30;99156.63;;;18.02;90.16
58467;BME280;44255;49.244;7.726;2022-10-19T09:19:57;99150.97;;;18.07;89.11
58467;BME280;44255;49.244;7.726;2022-10-19T09:22:28;99152.66;;;18.09;89.70
58467;BME280;44255;49.244;7.726;2022-10-19T09:25:17;99150.91;;;18.08;88.79
58467;BME280;44255;49.244;7.726;2022-10-19T09:27:47;99156.72;;;18.16;88.63
58467;BME280;44255;49.244;7.726;2022-10-19T09:30:19;99153.06;;;18.17;88.45
58467;BME280;44255;49.244;7.726;2022-10-19T09:32:46;99157.19;;;18.25;87.84
58467;BME280;44255;49.244;7.726;2022-10-19T09:35:24;99144.50;;;18.27;88.20
58467;BME280;44255;49.244;7.726;2022-10-19T09:37:52;99150.47;;;18.32;88.15
58467;BME280;44255;49.244;7.726;2022-10-19T09:40:24;99143.09;;;18.36;87.14
58467;BME280;44255;49.244;7.726;2022-10-19T09:42:50;99133.97;;;18.38;86.77
58467;BME280;44255;49.244;7.726;2022-10-19T09:45:42;99133.44;;;18.31;86.33
58467;BME280;44255;49.244;7.726;2022-10-19T09:48:32;99128.50;;;18.24;86.87
58467;BME280;44255;49.244;7.726;2022-10-19T09:51:02;99135.09;;;18.18;86.36
58467;BME280;44255;49.244;7.726;2022-10-19T09:53:28;99124.03;;;18.23;86.85
58467;BME280;44255;49.244;7.726;2022-10-19T09:56:06;99128.47;;;18.08;85.72
58467;BME280;44255;49.244;7.726;2022-10-19T09:58:33;99126.09;;;18.01;86.76
58467;BME280;44255;49.244;7.726;2022-10-19T10:01:00;99131.00;;;18.11;86.40
58467;BME280;44255;49.244;7.726;2022-10-19T10:03:29;99127.53;;;18.09;86.72
58467;BME280;44255;49.244;7.726;2022-10-19T10:05:57;99130.50;;;18.20;85.39
58467;BME280;44255;49.244;7.726;2022-10-19T10:08:25;99127.00;;;18.34;85.91
58467;BME280;44255;49.244;7.726;2022-10-19T10:11:11;99121.28;;;18.40;84.42
58467;BME280;44255;49.244;7.726;2022-10-19T10:13:40;99126.69;;;18.40;84.54
58467;BME280;44255;49.244;7.726;2022-10-19T10:16:08;99117.91;;;18.37;83.55
58467;BME280;44255;49.244;7.726;2022-10-19T10:18:37;99126.84;;;18.37;83.44
58467;BME280;44255;49.244;7.726;2022-10-19T10:21:12;99132.75;;;18.44;83.55
58467;BME280;44255;49.244;7.726;2022-10-19T10:23:38;99129.47;;;18.39;82.81
58467;BME280;44255;49.244;7.726;2022-10-19T10:26:15;99128.41;;;18.25;82.42
58467;BME280;44255;49.244;7.726;2022-10-19T10:28:47;99131.44;;;18.19;83.58
58467;BME280;44255;49.244;7.726;2022-10-19T10:31:12;99125.28;;;18.17;83.50
58467;BME280;44255;49.244;7.726;2022-10-19T10:33:38;99131.94;;;18.10;83.46
58467;BME280;44255;49.244;7.726;2022-10-19T10:36:06;99129.63;;;18.19;83.62
58467;BME280;44255;49.244;7.726;2022-10-19T10:38:45;99127.56;;;18.25;83.46
58467;BME280;44255;49.244;7.726;2022-10-19T10:41:13;99119.97;;;18.31;83.47
58467;BME280;44255;49.244;7.726;2022-10-19T10:43:51;99117.72;;;18.40;83.26
58467;BME280;44255;49.244;7.726;2022-10-19T10:46:21;99122.34;;;18.38;82.63
58467;BME280;44255;49.244;7.726;2022-10-19T10:48:53;99117.72;;;18.40;83.05
58467;BME280;44255;49.244;7.726;2022-10-19T10:51:30;99113.28;;;18.39;82.97
58467;BME280;44255;49.244;7.726;2022-10-19T10:54:13;99109.44;;;18.43;82.10
58467;BME280;44255;49.244;7.726;2022-10-19T10:56:40;99107.78;;;18.56;82.77
58467;BME280;44255;49.244;7.726;2022-10-19T11:01:52;99105.50;;;18.65;81.08
58467;BME280;44255;49.244;7.726;2022-10-19T11:04:27;99100.94;;;18.67;80.38
58467;BME280;44255;49.244;7.726;2022-10-19T11:06:58;99098.03;;;18.70;80.88
58467;BME280;44255;49.244;7.726;2022-10-19T11:09:30;99097.84;;;18.73;80.46
58467;BME280;44255;49.244;7.726;2022-10-19T11:12:02;99096.53;;;18.80;80.29
58467;BME280;44255;49.244;7.726;2022-10-19T11:14:34;99096.19;;;18.86;79.62
58467;BME280;44255;49.244;7.726;2022-10-19T11:17:05;99087.59;;;19.10;79.28
58467;BME280;44255;49.244;7.726;2022-10-19T11:19:38;99084.53;;;19.31;78.34
58467;BME280;44255;49.244;7.726;2022-10-19T11:22:40;99076.88;;;19.39;77.43
58467;BME280;44255;49.244;7.726;2022-10-19T11:33:54;99076.09;;;19.95;74.72
58467;BME280;44255;49.244;7.726;2022-10-19T11:47:53;99076.09;;;20.37;72.11
58467;BME280;44255;49.244;7.726;2022-10-19T11:50:32;99065.84;;;20.15;71.67
58467;BME280;44255;49.244;7.726;2022-10-19T11:58:02;99059.78;;;20.66;70.01
58467;BME280;44255;49.244;7.726;2022-10-19T12:00:43;99055.47;;;21.17;68.67
58467;BME280;44255;49.244;7.726;2022-10-19T12:09:08;99035.63;;;21.94;64.91
58467;BME280;44255;49.244;7.726;2022-10-19T12:12:08;99035.56;;;22.07;63.33
58467;BME280;44255;49.244;7.726;2022-10-19T12:14:40;99024.91;;;21.80;63.07
58467;BME280;44255;49.244;7.726;2022-10-19T12:17:09;99024.63;;;22.09;62.44
58467;BME280;44255;49.244;7.726;2022-10-19T12:19:42;99012.19;;;22.42;60.73
58467;BME280;44255;49.244;7.726;2022-10-19T12:22:14;99011.50;;;23.23;58.52
58467;BME280;44255;49.244;7.726;2022-10-19T12:24:41;99002.91;;;23.29;57.80
58467;BME280;44255;49.244;7.726;2022-10-19T12:27:11;99003.34;;;23.11;58.35
58467;BME280;44255;49.244;7.726;2022-10-19T12:29:40;99002.22;;;23.02;58.27
58467;BME280;44255;49.244;7.726;2022-10-19T12:32:11;99001.38;;;22.66;58.83
58467;BME280;44255;49.244;7.726;2022-10-19T12:34:46;98995.19;;;22.64;59.04
58467;BME280;44255;49.244;7.726;2022-10-19T12:40:02;98989.50;;;23.94;55.51
58467;BME280;44255;49.244;7.726;2022-10-19T12:45:47;98993.94;;;24.83;52.03
58467;BME280;44255;49.244;7.726;2022-10-19T12:48:14;98985.81;;;24.39;52.71
58467;BME280;44255;49.244;7.726;2022-10-19T12:53:38;98979.16;;;24.65;51.94
58467;BME280;44255;49.244;7.726;2022-10-19T12:56:17;98972.06;;;24.52;52.32
58467;BME280;44255;49.244;7.726;2022-10-19T12:58:44;98966.06;;;25.22;51.09
58467;BME280;44255;49.244;7.726;2022-10-19T13:01:27;98965.91;;;25.45;49.55
58467;BME280;44255;49.244;7.726;2022-10-19T13:04:08;98948.88;;;26.04;48.82
58467;BME280;44255;49.244;7.726;2022-10-19T13:06:36;98947.25;;;25.81;48.94
58467;BME280;44255;49.244;7.726;2022-10-19T13:09:07;98948.97;;;25.10;50.52
58467;BME280;44255;49.244;7.726;2022-10-19T13:11:34;98937.13;;;25.21;50.05
58467;BME280;44255;49.244;7.726;2022-10-19T13:21:49;98933.44;;;25.32;49.02
58467;BME280;44255;49.244;7.726;2022-10-19T13:29:38;98927.16;;;24.79;49.60
58467;BME280;44255;49.244;7.726;2022-10-19T13:32:36;98926.97;;;24.38;51.03
58467;BME280;44255;49.244;7.726;2022-10-19T13:40:54;98945.56;;;23.89;52.47
58467;BME280;44255;49.244;7.726;2022-10-19T13:43:25;98920.91;;;26.61;46.26
58467;BME280;44255;49.244;7.726;2022-10-19T13:46:12;98904.75;;;27.35;44.15
58467;BME280;44255;49.244;7.726;2022-10-19T13:54:19;98897.66;;;25.47;47.32
58467;BME280;44255;49.244;7.726;2022-10-19T14:00:14;98900.94;;;23.36;52.45
58467;BME280;44255;49.244;7.726;2022-10-19T14:08:33;98898.66;;;22.26;55.94
58467;BME280;44255;49.244;7.726;2022-10-19T14:11:12;98901.72;;;22.21;56.19
58467;BME280;44255;49.244;7.726;2022-10-19T14:13:38;98908.59;;;22.14;56.38
58467;BME280;44255;49.244;7.726;2022-10-19T14:16:04;98908.03;;;22.33;55.89
58467;BME280;44255;49.244;7.726;2022-10-19T14:18:31;98905.66;;;22.17;56.12
58467;BME280;44255;49.244;7.726;2022-10-19T14:20:59;98911.19;;;21.91;56.88
58467;BME280;44255;49.244;7.726;2022-10-19T14:23:29;98905.66;;;21.68;57.49
58467;BME280;44255;49.244;7.726;2022-10-19T14:25:57;98912.78;;;21.32;59.06
58467;BME280;44255;49.244;7.726;2022-10-19T14:28:24;98913.97;;;21.28;58.96
58467;BME280;44255;49.244;7.726;2022-10-19T14:30:56;98912.59;;;21.22;59.16
58467;BME280;44255;49.244;7.726;2022-10-19T14:33:21;98910.94;;;21.33;58.96
58467;BME280;44255;49.244;7.726;2022-10-19T14:35:50;98916.41;;;20.94;60.15
58467;BME280;44255;49.244;7.726;2022-10-19T14:38:24;98919.03;;;20.42;60.95
58467;BME280;44255;49.244;7.726;2022-10-19T14:40:50;98912.94;;;20.12;62.17
58467;BME280;44255;49.244;7.726;2022-10-19T14:43:26;98907.81;;;19.95;63.53
58467;BME280;44255;49.244;7.726;2022-10-19T14:46:12;98901.44;;;19.96;63.50
58467;BME280;44255;49.244;7.726;2022-10-19T14:48:41;98907.47;;;19.99;63.67
58467;BME280;44255;49.244;7.726;2022-10-19T14:54:13;98880.91;;;20.06;63.90
58467;BME280;44255;49.244;7.726;2022-10-19T14:57:03;98879.78;;;20.23;63.56
58467;BME280;44255;49.244;7.726;2022-10-19T14:59:34;98874.22;;;19.99;63.82
58467;BME280;44255;49.244;7.726;2022-10-19T15:02:04;98872.19;;;19.88;64.62
58467;BME280;44255;49.244;7.726;2022-10-19T15:04:36;98870.31;;;20.03;64.30
58467;BME280;44255;49.244;7.726;2022-10-19T15:07:12;98870.56;;;19.85;65.22
58467;BME280;44255;49.244;7.726;2022-10-19T15:09:41;98863.41;;;19.71;65.41
58467;BME280;44255;49.244;7.726;2022-10-19T15:12:13;98861.09;;;19.65;66.12
58467;BME280;44255;49.244;7.726;2022-10-19T15:14:40;98856.97;;;19.59;66.62
58467;BME280;44255;49.244;7.726;2022-10-19T15:17:21;98854.22;;;19.74;66.78
58467;BME280;44255;49.244;7.726;2022-10-19T15:19:47;98853.47;;;19.85;66.42
58467;BME280;44255;49.244;7.726;2022-10-19T15:24:39;98858.81;;;19.59;67.45
58467;BME280;44255;49.244;7.726;2022-10-19T15:27:20;98852.66;;;19.57;67.50
58467;BME280;44255;49.244;7.726;2022-10-19T15:29:58;98842.75;;;19.43;68.15
58467;BME280;44255;49.244;7.726;2022-10-19T15:32:28;98855.97;;;19.33;68.83
58467;BME280;44255;49.244;7.726;2022-10-19T15:34:56;98849.56;;;19.21;69.24
58467;BME280;44255;49.244;7.726;2022-10-19T15:37:22;98846.22;;;19.17;69.48
58467;BME280;44255;49.244;7.726;2022-10-19T15:39:49;98837.81;;;19.08;70.03
58467;BME280;44255;49.244;7.726;2022-10-19T15:42:35;98839.66;;;19.07;70.22
58467;BME280;44255;49.244;7.726;2022-10-19T15:45:26;98833.56;;;18.89;71.00
58467;BME280;44255;49.244;7.726;2022-10-19T15:50:45;98818.69;;;18.69;72.05
58467;BME280;44255;49.244;7.726;2022-10-19T15:53:56;98814.44;;;18.50;72.95
58467;BME280;44255;49.244;7.726;2022-10-19T15:56:35;98812.31;;;18.41;73.14
58467;BME280;44255;49.244;7.726;2022-10-19T15:59:08;98816.53;;;18.30;73.80
58467;BME280;44255;49.244;7.726;2022-10-19T16:01:38;98822.22;;;18.26;74.05
58467;BME280;44255;49.244;7.726;2022-10-19T16:04:06;98821.72;;;18.19;74.32
58467;BME280;44255;49.244;7.726;2022-10-19T16:06:32;98823.66;;;18.17;75.08
58467;BME280;44255;49.244;7.726;2022-10-19T16:08:59;98822.00;;;18.14;75.17
58467;BME280;44255;49.244;7.726;2022-10-19T16:11:25;98816.03;;;18.09;75.47
58467;BME280;44255;49.244;7.726;2022-10-19T16:13:51;98819.69;;;17.92;76.55
58467;BME280;44255;49.244;7.726;2022-10-19T16:16:24;98817.00;;;17.92;76.37
58467;BME280;44255;49.244;7.726;2022-10-19T16:18:50;98807.19;;;17.91;76.64
58467;BME280;44255;49.244;7.726;2022-10-19T16:21:17;98819.31;;;17.84;76.69
58467;BME280;44255;49.244;7.726;2022-10-19T16:23:43;98819.44;;;17.66;77.78
58467;BME280;44255;49.244;7.726;2022-10-19T16:26:08;98807.84;;;17.49;79.10
58467;BME280;44255;49.244;7.726;2022-10-19T16:28:35;98808.88;;;17.47;79.45
58467;BME280;44255;49.244;7.726;2022-10-19T16:31:00;98808.94;;;17.61;78.69
58467;BME280;44255;49.244;7.726;2022-10-19T16:33:25;98798.81;;;17.51;79.19
58467;BME280;44255;49.244;7.726;2022-10-19T16:35:51;98808.88;;;17.47;79.42
58467;BME280;44255;49.244;7.726;2022-10-19T16:38:16;98808.59;;;17.52;79.32
58467;BME280;44255;49.244;7.726;2022-10-19T16:40:42;98804.78;;;17.56;79.14
58467;BME280;44255;49.244;7.726;2022-10-19T16:43:07;98797.97;;;17.34;80.30
58467;BME280;44255;49.244;7.726;2022-10-19T16:45:33;98794.31;;;17.35;80.46
58467;BME280;44255;49.244;7.726;2022-10-19T16:47:59;98807.84;;;17.33;80.39
58467;BME280;44255;49.244;7.726;2022-10-19T16:50:24;98798.06;;;17.16;80.99
58467;BME280;44255;49.244;7.726;2022-10-19T16:53:03;98808.13;;;17.13;81.70
58467;BME280;44255;49.244;7.726;2022-10-19T16:55:29;98801.63;;;17.01;81.88
58467;BME280;44255;49.244;7.726;2022-10-19T16:57:55;98798.56;;;17.07;81.78
58467;BME280;44255;49.244;7.726;2022-10-19T17:00:20;98796.91;;;16.88;82.39
58467;BME280;44255;49.244;7.726;2022-10-19T17:02:45;98801.25;;;16.91;82.52
58467;BME280;44255;49.244;7.726;2022-10-19T17:05:11;98796.72;;;16.91;82.72
58467;BME280;44255;49.244;7.726;2022-10-19T17:07:36;98796.03;;;16.88;82.79
58467;BME280;44255;49.244;7.726;2022-10-19T17:10:02;98793.44;;;16.86;83.07
58467;BME280;44255;49.244;7.726;2022-10-19T17:12:27;98795.94;;;16.89;82.76
58467;BME280;44255;49.244;7.726;2022-10-19T17:14:52;98787.63;;;16.78;83.42
58467;BME280;44255;49.244;7.726;2022-10-19T17:17:17;98785.78;;;16.78;82.76
58467;BME280;44255;49.244;7.726;2022-10-19T17:19:43;98789.56;;;16.58;84.49
58467;BME280;44255;49.244;7.726;2022-10-19T17:22:08;98791.75;;;16.34;84.53
58467;BME280;44255;49.244;7.726;2022-10-19T17:24:33;98788.63;;;16.26;85.00
58467;BME280;44255;49.244;7.726;2022-10-19T17:27:00;98792.84;;;16.14;85.75
58467;BME280;44255;49.244;7.726;2022-10-19T17:29:26;98792.53;;;16.02;86.02
58467;BME280;44255;49.244;7.726;2022-10-19T17:31:52;98792.50;;;15.85;86.70
58467;BME280;44255;49.244;7.726;2022-10-19T17:34:17;98786.97;;;15.70;87.42
58467;BME280;44255;49.244;7.726;2022-10-19T17:36:43;98797.66;;;15.72;87.98
58467;BME280;44255;49.244;7.726;2022-10-19T17:39:14;98809.38;;;15.52;88.50
58467;BME280;44255;49.244;7.726;2022-10-19T17:41:42;98807.56;;;15.34;89.89
58467;BME280;44255;49.244;7.726;2022-10-19T17:44:08;98804.06;;;15.32;90.18
58467;BME280;44255;49.244;7.726;2022-10-19T17:46:34;98809.19;;;15.37;89.57
58467;BME280;44255;49.244;7.726;2022-10-19T17:48:59;98813.19;;;15.28;90.10
58467;BME280;44255;49.244;7.726;2022-10-19T17:51:27;98815.09;;;15.26;90.66
58467;BME280;44255;49.244;7.726;2022-10-19T17:54:01;98810.44;;;15.30;90.24
58467;BME280;44255;49.244;7.726;2022-10-19T17:56:28;98811.09;;;15.35;90.61
58467;BME280;44255;49.244;7.726;2022-10-19T17:58:55;98814.38;;;15.40;90.63
58467;BME280;44255;49.244;7.726;2022-10-19T18:01:22;98813.72;;;15.54;90.40
58467;BME280;44255;49.244;7.726;2022-10-19T18:03:48;98811.59;;;15.61;89.40
58467;BME280;44255;49.244;7.726;2022-10-19T18:06:19;98809.84;;;15.42;89.13
58467;BME280;44255;49.244;7.726;2022-10-19T18:08:52;98810.91;;;15.38;89.07
58467;BME280;44255;49.244;7.726;2022-10-19T18:11:27;98805.56;;;15.38;88.63
58467;BME280;44255;49.244;7.726;2022-10-19T18:13:57;98806.63;;;15.16;89.74
58467;BME280;44255;49.244;7.726;2022-10-19T18:16:31;98804.28;;;15.28;90.36